Portada
METAR-TAF:

METAR-TAF

Aeroports :

Dumaguete, Filipines

latitud: 09-20-01N, longitud: 123-18-02E, altitud: 5 m

Observació

L'informe es va fer fa 1 hora i 23 minuts, a les 21:00 UTC
Vent calma
Temperatura 24°C
Humitat 89%
Pressió 1008 hPa
Visibilitat 10 km o més
Escasses núvols a una alçada de 1500 ft
Cel ennuvolat a una alçada de 22000 ft

METAR: RPVD 152100Z 00000KT 9999 FEW015 BKN220 24/22 Q1008 RMK A2977

Hora: 06:23 (22:23 UTC)

Pronòstic

L'informe es va fer fa 5 hores i 23 minuts, a les 17:00 UTC
Pronòstic vàlid del 15 a les 18 UTC al 16 a les 18 UTC
Vent 6 kt del Oest
Visibilitat 10 km o més
Escasses núvols a una alçada de 1500 ft
Núvols disperses a una alçada de 7000 ft
Cel ennuvolat a una alçada de 22000 ft
Temporalment
l' 16 a les 03 UTC al 16 a les 09 UTC
Vent 10 kt del Sud/Sud-Oest
Escasses núvols a una alçada de 1400 ft, Cumulonimbus.
Cel ennuvolat a una alçada de 7000 ft

TAF: RPVD 151700Z 1518/1618 26006KT 9999 FEW015 SCT070 BKN220 TEMPO 1603/1609 20010KT FEW014CB BKN070

Observacions i pronòstics meteorològics de més de 4000 aeroports (METAR i TAF).

Les estacions disponibles són els punts grocs i vermells al mapa.

Posi el ratolí al punt desitjat per veure el nom de l'estació.

Feu clic per veure les observacions i els pronòstics meteorològics.

Per canviar el mapa: feu clic els botons verds amb una creu de color negre per apropar; al botó verd amb un guió per allunyar la imatge; o en les fletxes verdes per a mapes adjacents.


METAR-TAF: